createdAt,value
2018-12-26T00:00:56.295Z,0.60
2018-12-26T00:03:38.595Z,0.80
2018-12-26T00:06:20.836Z,0.80
2018-12-26T00:09:02.637Z,1.00
2018-12-26T00:11:45.723Z,0.90
2018-12-26T00:14:28.220Z,1.00
2018-12-26T00:17:10.520Z,0.90
2018-12-26T00:19:52.242Z,0.90
2018-12-26T00:22:34.130Z,0.80
2018-12-26T00:25:16.509Z,0.80
2018-12-26T00:27:58.774Z,0.70
2018-12-26T00:30:41.278Z,0.80
2018-12-26T00:33:23.250Z,0.60
2018-12-26T00:36:05.574Z,0.40
2018-12-26T00:38:47.434Z,0.30
2018-12-26T00:41:29.460Z,0.50
2018-12-26T00:44:11.261Z,0.70
2018-12-26T00:46:53.193Z,0.70
2018-12-26T00:49:35.078Z,0.80
2018-12-26T00:52:17.625Z,0.90
2018-12-26T00:54:59.518Z,0.80
2018-12-26T00:57:41.810Z,0.80
2018-12-26T01:00:23.858Z,0.90
2018-12-26T01:03:05.623Z,0.60
2018-12-26T01:05:47.568Z,0.60
2018-12-26T01:08:29.969Z,0.60
2018-12-26T01:11:11.970Z,0.50
2018-12-26T01:13:54.405Z,0.60
2018-12-26T01:16:36.698Z,0.30
2018-12-26T01:19:18.413Z,0.30
2018-12-26T01:22:01.135Z,0.40
2018-12-26T01:24:42.929Z,0.50
2018-12-26T01:27:24.608Z,0.80
2018-12-26T01:30:06.614Z,0.90
2018-12-26T01:32:48.602Z,0.50
2018-12-26T01:35:30.605Z,0.70
2018-12-26T01:38:12.674Z,0.70
2018-12-26T01:40:55.277Z,0.70
2018-12-26T01:43:37.217Z,0.80
2018-12-26T01:46:19.281Z,0.70
2018-12-26T01:49:01.975Z,0.80
2018-12-26T01:51:43.909Z,0.90
2018-12-26T01:54:26.126Z,1.00
2018-12-26T01:57:08.142Z,1.00
2018-12-26T01:59:50.416Z,0.90
2018-12-26T02:02:32.285Z,0.60
2018-12-26T02:05:14.438Z,0.40
2018-12-26T02:07:56.401Z,0.40
2018-12-26T02:10:38.310Z,0.50
2018-12-26T02:13:20.430Z,0.50
2018-12-26T02:16:02.747Z,0.20
2018-12-26T02:18:44.885Z,0.30
2018-12-26T02:21:27.285Z,0.40
2018-12-26T02:24:09.430Z,0.50
2018-12-26T02:26:51.645Z,0.60
2018-12-26T02:29:33.390Z,0.60
2018-12-26T02:32:15.219Z,0.60
2018-12-26T02:34:57.026Z,0.30
2018-12-26T02:37:38.998Z,0.50
2018-12-26T02:40:21.039Z,0.60
2018-12-26T02:43:03.075Z,0.70
2018-12-26T02:45:44.919Z,0.70
2018-12-26T02:48:26.828Z,0.70
2018-12-26T02:51:09.222Z,0.60
2018-12-26T02:53:51.230Z,0.40
2018-12-26T02:56:33.362Z,0.50
2018-12-26T03:02:41.147Z,0.40
2018-12-26T03:05:24.075Z,0.60
2018-12-26T03:08:06.378Z,0.40
2018-12-26T03:10:48.330Z,0.10
2018-12-26T03:13:30.666Z,0.30
2018-12-26T03:16:13.442Z,0.20
2018-12-26T03:18:55.394Z,0.30
2018-12-26T03:21:37.716Z,0.30
2018-12-26T03:24:19.486Z,0.40
2018-12-26T03:27:01.254Z,0.50
2018-12-26T03:29:43.713Z,0.50
2018-12-26T03:32:25.475Z,0.60
2018-12-26T03:35:07.569Z,0.40
2018-12-26T03:37:50.189Z,0.20
2018-12-26T03:40:32.046Z,0.50
2018-12-26T03:43:13.943Z,0.60
2018-12-26T03:45:56.189Z,0.70
2018-12-26T03:48:38.646Z,0.70
2018-12-26T03:51:21.133Z,0.70
2018-12-26T03:54:03.666Z,0.60
2018-12-26T03:56:46.930Z,0.60
2018-12-26T03:59:28.838Z,0.60
2018-12-26T04:02:10.821Z,0.50
2018-12-26T04:04:52.663Z,0.60
2018-12-26T04:07:34.507Z,0.60
2018-12-26T04:10:16.259Z,0.60
2018-12-26T04:12:58.390Z,0.50
2018-12-26T04:15:40.230Z,0.30
2018-12-26T04:18:22.423Z,0.10
2018-12-26T04:21:04.082Z,-0.10
2018-12-26T04:23:45.863Z,0.30
2018-12-26T04:26:28.432Z,0.50
2018-12-26T04:29:10.402Z,0.50
2018-12-26T04:31:52.838Z,0.40
2018-12-26T04:34:34.891Z,0.30
2018-12-26T04:37:16.805Z,0.50
2018-12-26T04:39:59.288Z,0.50
2018-12-26T04:42:41.255Z,0.60
2018-12-26T04:45:23.631Z,0.50
2018-12-26T04:48:05.445Z,0.50
2018-12-26T04:50:47.984Z,0.60
2018-12-26T04:53:30.407Z,0.60
2018-12-26T04:56:13.077Z,0.50
2018-12-26T04:58:54.895Z,0.40
2018-12-26T05:01:36.782Z,0.30
2018-12-26T05:04:18.891Z,0.40
2018-12-26T05:07:00.976Z,0.40
2018-12-26T05:09:42.656Z,0.50
2018-12-26T05:12:24.808Z,0.50
2018-12-26T05:15:07.295Z,0.50
2018-12-26T05:17:49.027Z,0.50
2018-12-26T05:20:30.890Z,0.50
2018-12-26T05:23:13.191Z,0.60
2018-12-26T05:25:54.918Z,0.60
2018-12-26T05:28:36.954Z,0.50
2018-12-26T05:31:19.355Z,0.40
2018-12-26T05:34:01.346Z,0.50
2018-12-26T05:36:43.378Z,0.50
2018-12-26T05:39:25.594Z,0.50
2018-12-26T05:42:07.802Z,0.30
2018-12-26T05:44:49.506Z,0.10
2018-12-26T05:47:31.807Z,0.00
2018-12-26T05:50:14.342Z,0.00
2018-12-26T05:52:56.338Z,-0.30
2018-12-26T05:55:38.590Z,-0.10
2018-12-26T05:58:20.294Z,0.00
2018-12-26T06:01:02.739Z,0.30
2018-12-26T06:03:44.814Z,0.30
2018-12-26T06:06:27.147Z,-0.10
2018-12-26T06:09:09.206Z,-0.10
2018-12-26T06:11:51.050Z,-0.10
2018-12-26T06:14:33.129Z,-0.30
2018-12-26T06:17:15.862Z,-0.20
2018-12-26T06:19:58.019Z,0.10
2018-12-26T06:22:40.222Z,-0.30
2018-12-26T06:25:22.610Z,-0.20
2018-12-26T06:28:04.658Z,0.00
2018-12-26T06:30:46.578Z,0.10
2018-12-26T06:33:28.446Z,0.10
2018-12-26T06:36:10.602Z,0.10
2018-12-26T06:38:53.098Z,0.20
2018-12-26T06:41:35.317Z,0.10
2018-12-26T06:44:17.226Z,0.10
2018-12-26T06:46:59.286Z,0.10
2018-12-26T06:49:41.540Z,0.20
2018-12-26T06:52:23.874Z,0.20
2018-12-26T06:55:06.458Z,0.00
2018-12-26T06:57:48.982Z,-0.10
2018-12-26T07:00:32.562Z,0.00
2018-12-26T07:03:14.346Z,0.10
2018-12-26T07:05:56.488Z,0.20
2018-12-26T07:08:38.374Z,0.30
2018-12-26T07:11:20.382Z,0.30
2018-12-26T07:14:02.804Z,0.40
2018-12-26T07:16:44.754Z,0.20
2018-12-26T07:19:26.586Z,0.30
2018-12-26T07:22:08.526Z,0.30
2018-12-26T07:24:50.458Z,0.30
2018-12-26T07:27:32.778Z,0.10
2018-12-26T07:30:15.450Z,0.00
2018-12-26T07:32:57.850Z,-0.20
2018-12-26T07:35:39.750Z,-0.40
2018-12-26T07:38:21.629Z,-0.50
2018-12-26T07:41:03.515Z,-0.40
2018-12-26T07:43:45.539Z,-0.20
2018-12-26T07:46:27.959Z,-0.30
2018-12-26T07:49:09.899Z,-0.10
2018-12-26T07:51:51.638Z,-0.10
2018-12-26T07:54:34.080Z,-0.10
2018-12-26T07:57:16.229Z,0.20
2018-12-26T07:59:58.262Z,0.20
2018-12-26T08:02:40.830Z,0.30
2018-12-26T08:05:22.854Z,0.10
2018-12-26T08:08:04.778Z,0.30
2018-12-26T08:10:47.033Z,0.30
2018-12-26T08:13:31.290Z,0.30
2018-12-26T08:16:12.982Z,0.30
2018-12-26T08:18:54.874Z,0.40
2018-12-26T08:21:36.802Z,-0.20
2018-12-26T08:24:19.169Z,-0.40
2018-12-26T08:27:01.290Z,-0.10
2018-12-26T08:29:43.218Z,0.10
2018-12-26T08:32:25.206Z,0.10
2018-12-26T08:35:07.454Z,-0.20
2018-12-26T08:37:50.132Z,0.00
2018-12-26T08:40:31.887Z,0.20
2018-12-26T08:43:14.617Z,0.20
2018-12-26T08:45:56.514Z,0.20
2018-12-26T08:48:38.596Z,0.20
2018-12-26T08:51:20.830Z,0.30
2018-12-26T08:54:03.438Z,0.30
2018-12-26T08:56:45.246Z,0.00
2018-12-26T08:59:27.437Z,0.20
2018-12-26T09:02:09.127Z,0.30
2018-12-26T09:04:51.055Z,0.30
2018-12-26T09:07:32.951Z,-0.20
2018-12-26T09:10:14.895Z,-0.10
2018-12-26T09:12:56.918Z,0.00
2018-12-26T09:15:39.182Z,0.30
2018-12-26T09:18:21.190Z,0.30
2018-12-26T09:21:03.098Z,0.50
2018-12-26T09:23:45.190Z,0.40
2018-12-26T09:26:27.210Z,0.40
2018-12-26T09:29:08.966Z,0.40
2018-12-26T09:31:51.194Z,0.50
2018-12-26T09:34:32.966Z,0.40
2018-12-26T09:37:14.989Z,0.40
2018-12-26T09:39:56.910Z,0.50
2018-12-26T09:42:38.770Z,0.40
2018-12-26T09:45:21.101Z,0.40
2018-12-26T09:48:03.318Z,0.40
2018-12-26T09:50:45.659Z,0.40
2018-12-26T09:53:27.821Z,0.50
2018-12-26T09:56:09.706Z,0.70
2018-12-26T09:58:52.874Z,0.70
2018-12-26T10:01:34.754Z,0.70
2018-12-26T10:04:17.195Z,0.30
2018-12-26T10:06:58.990Z,0.20
2018-12-26T10:09:40.929Z,0.30
2018-12-26T10:12:23.571Z,0.40
2018-12-26T10:15:05.493Z,0.60
2018-12-26T10:17:47.637Z,0.60
2018-12-26T10:20:30.218Z,0.70
2018-12-26T10:23:11.970Z,0.70
2018-12-26T10:25:54.382Z,0.60
2018-12-26T10:28:36.517Z,0.50
2018-12-26T10:31:18.646Z,0.60
2018-12-26T10:34:00.858Z,0.40
2018-12-26T10:36:43.246Z,0.60
2018-12-26T10:39:25.165Z,0.60
2018-12-26T10:42:07.418Z,0.50
2018-12-26T10:44:50.074Z,0.60
2018-12-26T10:47:32.846Z,0.60
2018-12-26T10:50:14.917Z,0.60
2018-12-26T10:52:56.803Z,0.60
2018-12-26T10:55:38.522Z,0.70
2018-12-26T10:58:21.047Z,0.70
2018-12-26T11:01:02.930Z,0.80
2018-12-26T11:03:45.130Z,0.80
2018-12-26T11:06:27.087Z,0.90
2018-12-26T11:09:09.058Z,0.50
2018-12-26T11:11:51.174Z,0.60
2018-12-26T11:14:33.368Z,0.60
2018-12-26T11:17:15.859Z,0.80
2018-12-26T11:19:58.042Z,0.80
2018-12-26T11:22:40.030Z,0.90
2018-12-26T11:25:22.229Z,0.70
2018-12-26T11:28:04.567Z,0.50
2018-12-26T11:30:46.549Z,0.50
2018-12-26T11:33:28.270Z,0.60
2018-12-26T11:36:10.356Z,0.90
2018-12-26T11:38:52.331Z,1.00
2018-12-26T11:41:34.515Z,0.80
2018-12-26T11:44:16.347Z,0.60
2018-12-26T11:46:58.950Z,0.80
2018-12-26T11:49:40.989Z,0.90
2018-12-26T11:52:23.055Z,0.80
2018-12-26T11:55:05.417Z,1.00
2018-12-26T11:57:47.774Z,1.10
2018-12-26T12:00:31.298Z,1.00
2018-12-26T12:03:13.525Z,1.20
2018-12-26T12:05:55.397Z,1.20
2018-12-26T12:08:37.666Z,1.10
2018-12-26T12:11:21.342Z,1.20
2018-12-26T12:14:03.373Z,1.10
2018-12-26T12:16:45.246Z,1.10
2018-12-26T12:19:27.067Z,1.00
2018-12-26T12:22:09.286Z,1.10
2018-12-26T12:24:51.494Z,1.00
2018-12-26T12:27:33.693Z,1.20
2018-12-26T12:30:15.643Z,1.30
2018-12-26T12:32:58.314Z,1.30
2018-12-26T12:35:40.806Z,1.40
2018-12-26T12:38:22.989Z,1.30
2018-12-26T12:41:04.923Z,1.30
2018-12-26T12:43:46.721Z,1.20
2018-12-26T12:46:28.586Z,1.20
2018-12-26T12:49:10.631Z,1.20
2018-12-26T12:51:52.569Z,1.10
2018-12-26T12:54:34.986Z,1.10
2018-12-26T12:57:17.574Z,1.10
2018-12-26T12:59:59.450Z,1.10
2018-12-26T13:02:41.206Z,1.30
2018-12-26T13:05:23.335Z,1.30
2018-12-26T13:08:05.650Z,1.40
2018-12-26T13:10:48.766Z,1.30
2018-12-26T13:13:31.815Z,1.30
2018-12-26T13:16:14.146Z,1.30
2018-12-26T13:18:55.954Z,1.00
2018-12-26T13:21:38.436Z,1.20
2018-12-26T13:24:21.090Z,1.10
2018-12-26T13:27:02.906Z,1.10
2018-12-26T13:29:53.385Z,1.20
2018-12-26T13:32:27.983Z,1.30
2018-12-26T13:35:10.486Z,1.30
2018-12-26T13:37:52.405Z,1.00
2018-12-26T13:40:34.573Z,1.10
2018-12-26T13:43:16.383Z,1.30
2018-12-26T13:45:58.612Z,1.30
2018-12-26T13:48:40.980Z,1.10
2018-12-26T13:51:22.841Z,1.20
2018-12-26T13:54:04.927Z,1.00
2018-12-26T13:56:46.903Z,0.80
2018-12-26T13:59:28.826Z,1.00
2018-12-26T14:02:11.234Z,0.90
2018-12-26T14:04:53.226Z,1.00
2018-12-26T14:07:35.577Z,1.20
2018-12-26T14:10:18.034Z,1.30
2018-12-26T14:13:00.138Z,1.30
2018-12-26T14:15:42.155Z,1.00
2018-12-26T14:18:24.807Z,0.90
2018-12-26T14:21:07.029Z,0.50
2018-12-26T14:23:48.846Z,0.40
2018-12-26T14:26:31.518Z,0.50
2018-12-26T14:29:13.556Z,0.60
2018-12-26T14:31:55.479Z,0.80
2018-12-26T14:34:37.697Z,0.70
2018-12-26T14:37:20.216Z,0.40
2018-12-26T14:40:02.128Z,0.40
2018-12-26T14:42:43.845Z,0.40
2018-12-26T14:45:25.951Z,0.40
2018-12-26T14:48:07.634Z,0.60
2018-12-26T14:50:49.825Z,0.70
2018-12-26T14:53:31.642Z,0.70
2018-12-26T14:56:13.554Z,0.60
2018-12-26T14:58:55.434Z,0.70
2018-12-26T15:01:37.563Z,0.80
2018-12-26T15:04:19.762Z,0.70
2018-12-26T15:07:01.789Z,0.70
2018-12-26T15:09:43.830Z,0.80
2018-12-26T15:12:25.686Z,0.80
2018-12-26T15:15:07.509Z,0.90
2018-12-26T15:17:49.660Z,0.90
2018-12-26T15:20:31.687Z,0.90
2018-12-26T15:23:13.549Z,0.90
2018-12-26T15:25:55.194Z,0.90
2018-12-26T15:28:37.557Z,0.90
2018-12-26T15:31:19.598Z,0.90
2018-12-26T15:34:01.842Z,0.60
2018-12-26T15:36:43.514Z,0.80
2018-12-26T15:39:25.823Z,0.50
2018-12-26T15:42:07.899Z,0.50
2018-12-26T15:44:49.963Z,0.40
2018-12-26T15:47:31.723Z,0.30
2018-12-26T15:50:14.418Z,0.40
2018-12-26T15:52:56.482Z,0.20
2018-12-26T15:55:38.750Z,0.10
2018-12-26T15:58:21.421Z,0.10
2018-12-26T16:01:03.595Z,0.10
2018-12-26T16:03:45.442Z,0.30
2018-12-26T16:06:27.862Z,0.30
2018-12-26T16:09:10.270Z,0.50
2018-12-26T16:11:52.506Z,0.60
2018-12-26T16:14:34.158Z,0.20
2018-12-26T16:17:16.614Z,0.30
2018-12-26T16:19:58.578Z,0.20
2018-12-26T16:22:40.647Z,0.30
2018-12-26T16:25:22.555Z,0.30
2018-12-26T16:28:04.566Z,0.40
2018-12-26T16:30:46.891Z,0.50
2018-12-26T16:33:28.873Z,0.50
2018-12-26T16:36:12.925Z,0.30
2018-12-26T16:38:55.269Z,0.40
2018-12-26T16:41:37.322Z,0.50
2018-12-26T16:44:19.705Z,0.40
2018-12-26T16:47:01.434Z,0.40
2018-12-26T16:49:43.183Z,0.30
2018-12-26T16:52:25.346Z,0.30
2018-12-26T16:55:07.514Z,0.40
2018-12-26T16:57:49.491Z,0.50
2018-12-26T17:00:31.694Z,0.50
2018-12-26T17:03:13.522Z,0.60
2018-12-26T17:05:55.570Z,0.60
2018-12-26T17:08:37.758Z,0.50
2018-12-26T17:11:19.914Z,0.60
2018-12-26T17:14:01.567Z,0.60
2018-12-26T17:16:44.047Z,0.60
2018-12-26T17:19:26.711Z,0.60
2018-12-26T17:22:08.521Z,0.50
2018-12-26T17:24:50.226Z,0.50
2018-12-26T17:27:32.274Z,0.40
2018-12-26T17:30:14.792Z,0.40
2018-12-26T17:33:00.723Z,-0.10
2018-12-26T17:35:40.722Z,0.00
2018-12-26T17:38:23.354Z,0.20
2018-12-26T17:41:05.229Z,0.20
2018-12-26T17:43:47.646Z,0.00
2018-12-26T17:46:30.130Z,0.10
2018-12-26T17:49:12.434Z,0.30
2018-12-26T17:51:54.310Z,0.20
2018-12-26T17:54:36.535Z,-0.20
2018-12-26T17:57:18.304Z,0.10
2018-12-26T18:00:00.982Z,0.10
2018-12-26T18:02:43.474Z,0.10
2018-12-26T18:05:26.154Z,-0.20
2018-12-26T18:08:08.021Z,-0.30
2018-12-26T18:10:49.895Z,-0.40
2018-12-26T18:13:32.462Z,-0.40
2018-12-26T18:16:14.669Z,-0.50
2018-12-26T18:18:56.606Z,-0.10
2018-12-26T18:21:38.982Z,-0.20
2018-12-26T18:24:20.958Z,-0.20
2018-12-26T18:27:02.945Z,-0.20
2018-12-26T18:29:44.991Z,-0.10
2018-12-26T18:32:27.146Z,0.10
2018-12-26T18:35:09.578Z,0.00
2018-12-26T18:37:51.689Z,-0.10
2018-12-26T18:40:34.275Z,0.00
2018-12-26T18:43:16.243Z,-0.10
2018-12-26T18:45:58.634Z,0.00
2018-12-26T18:48:42.063Z,0.00
2018-12-26T18:51:24.230Z,0.00
2018-12-26T18:54:06.646Z,0.20
2018-12-26T18:56:48.566Z,0.10
2018-12-26T18:59:30.602Z,0.20
2018-12-26T19:02:12.462Z,0.30
2018-12-26T19:04:54.606Z,0.10
2018-12-26T19:07:37.014Z,-0.20
2018-12-26T19:10:19.570Z,0.10
2018-12-26T19:13:01.858Z,0.10
2018-12-26T19:15:44.027Z,0.00
2018-12-26T19:18:26.019Z,0.00
2018-12-26T19:21:08.306Z,0.10
2018-12-26T19:23:50.431Z,0.20
2018-12-26T19:26:32.640Z,0.20
2018-12-26T19:29:14.910Z,0.10
2018-12-26T19:31:57.134Z,0.20
2018-12-26T19:34:39.529Z,0.10
2018-12-26T19:37:22.009Z,0.10
2018-12-26T19:40:04.246Z,-0.20
2018-12-26T19:42:46.435Z,-0.10
2018-12-26T19:45:28.295Z,-0.10
2018-12-26T19:48:10.382Z,-0.10
2018-12-26T19:50:52.789Z,0.00
2018-12-26T19:53:35.078Z,0.00
2018-12-26T19:56:19.451Z,-0.30
2018-12-26T19:59:01.723Z,-0.60
2018-12-26T20:01:48.203Z,-0.60
2018-12-26T20:04:27.435Z,-0.70
2018-12-26T20:07:09.250Z,-0.80
2018-12-26T20:09:51.394Z,-0.90
2018-12-26T20:12:33.093Z,-0.70
2018-12-26T20:15:15.815Z,-0.50
2018-12-26T20:17:57.682Z,-0.30
2018-12-26T20:20:39.627Z,-0.30
2018-12-26T20:23:21.566Z,-0.20
2018-12-26T20:26:03.714Z,-0.30
2018-12-26T20:28:45.472Z,-0.30
2018-12-26T20:31:27.658Z,-0.30
2018-12-26T20:34:09.753Z,-0.20
2018-12-26T20:36:51.618Z,0.00
2018-12-26T20:39:33.478Z,-0.20
2018-12-26T20:42:15.578Z,-0.20
2018-12-26T20:44:57.395Z,-0.10
2018-12-26T20:47:39.571Z,-0.20
2018-12-26T20:50:21.710Z,-0.10
2018-12-26T20:53:03.960Z,-0.10
2018-12-26T20:55:46.522Z,-0.20
2018-12-26T20:58:28.814Z,-0.10
2018-12-26T21:01:11.297Z,-0.20
2018-12-26T21:03:53.506Z,-0.30
2018-12-26T21:06:35.294Z,-0.30
2018-12-26T21:09:17.118Z,-0.10
2018-12-26T21:11:59.212Z,0.00
2018-12-26T21:14:41.246Z,-0.10
2018-12-26T21:17:23.598Z,-0.20
2018-12-26T21:20:05.706Z,-0.20
2018-12-26T21:22:47.642Z,-0.10
2018-12-26T21:25:29.926Z,0.00
2018-12-26T21:28:12.194Z,-0.10
2018-12-26T21:30:54.454Z,0.00
2018-12-26T21:33:37.056Z,-0.10
2018-12-26T21:36:18.792Z,-0.40
2018-12-26T21:39:00.698Z,-0.30
2018-12-26T21:41:44.728Z,-0.30
2018-12-26T21:44:26.674Z,-0.20
2018-12-26T21:47:09.418Z,-0.10
2018-12-26T21:49:51.595Z,-0.10
2018-12-26T21:52:33.538Z,-0.10
2018-12-26T21:55:15.402Z,-0.20
2018-12-26T21:57:57.448Z,-0.10
2018-12-26T22:00:39.975Z,-0.10
2018-12-26T22:03:22.809Z,-0.10
2018-12-26T22:06:05.726Z,-0.10
2018-12-26T22:08:47.471Z,-0.10
2018-12-26T22:11:29.694Z,-0.20
2018-12-26T22:14:12.090Z,-0.30
2018-12-26T22:16:54.479Z,-0.10
2018-12-26T22:19:36.370Z,-0.10
2018-12-26T22:22:18.682Z,-0.60
2018-12-26T22:25:00.879Z,-0.40
2018-12-26T22:27:43.718Z,-0.20
2018-12-26T22:30:25.930Z,-0.40
2018-12-26T22:33:07.979Z,-0.70
2018-12-26T22:35:49.995Z,-0.40
2018-12-26T22:38:32.562Z,-0.30
2018-12-26T22:41:14.474Z,-0.20
2018-12-26T22:43:56.290Z,-0.20
2018-12-26T22:46:38.630Z,-0.20
2018-12-26T22:49:20.893Z,-0.30
2018-12-26T22:52:03.231Z,-0.50
2018-12-26T22:54:45.154Z,-0.40
2018-12-26T22:57:27.290Z,-0.30
2018-12-26T23:00:09.025Z,-0.40
2018-12-26T23:02:52.554Z,-0.60
2018-12-26T23:05:34.455Z,-0.50
2018-12-26T23:08:16.294Z,-0.50
2018-12-26T23:10:58.710Z,-0.30
2018-12-26T23:13:40.675Z,-0.20
2018-12-26T23:16:22.623Z,-0.20
2018-12-26T23:19:04.562Z,-0.40
2018-12-26T23:21:46.462Z,-0.40
2018-12-26T23:24:28.578Z,-0.20
2018-12-26T23:27:11.125Z,-0.40
2018-12-26T23:29:53.449Z,-0.20
2018-12-26T23:32:35.170Z,-0.10
2018-12-26T23:35:17.146Z,-0.20
2018-12-26T23:37:59.044Z,-0.30
2018-12-26T23:40:41.094Z,-0.30
2018-12-26T23:43:23.198Z,-0.40
2018-12-26T23:46:05.410Z,-0.30
2018-12-26T23:48:47.264Z,-0.50
2018-12-26T23:51:29.191Z,-0.50
2018-12-26T23:54:10.998Z,-0.60
2018-12-26T23:56:53.238Z,-0.60
2018-12-26T23:59:34.850Z,-0.40
